Aérodrome :
LOGIN :

S'inscrire | Disclaimer

   EN    FR    IT 

 










Légende :    VFR   VFR Marginal   IFR   IFR Intensif   IFR Très Intensif
Visi : 
Plafond : 
>= 8 km
>= 3000ft
5 à 8 km
1000 à 3000 ft
1500m à 5 km
500 à 1000 ft
800 à 1500m
200 à 500 ft
< 800m
< 200 ft
Symboles :   Orages  Brouillard  Fortes neiges  Fortes précipitations  Vent > 20 kt
SIGMETs :   Divers  Orages  Givrage  Turbulence  Onde Orograph.  Cendres Volcan.






- Altitude de l'aérodrome : 74 ft
- Code IATA : MRS


LFML - Marseille / Marignane

DERNIER METAR :
  • 291400Z AUTO 25003KT CAVOK 14/06 Q1015 NOSIG

METARs EXPIRÉS :
  • 291330Z AUTO 26004KT CAVOK 15/06 Q1015 NOSIG
  • 291300Z AUTO 24005KT CAVOK 14/07 Q1015 NOSIG
  • 291230Z AUTO 25003KT CAVOK 13/07 Q1015 NOSIG
  • 291200Z AUTO VRB03KT CAVOK 12/07 Q1015 NOSIG
  • 291130Z AUTO 26004KT CAVOK 12/07 Q1015 NOSIG

TAF TAF LFML
Valide du 29 à 09h jusqu'au 30 à 15h UTC


290800Z 2909/3015 VRB03KT CAVOK TX15/2913Z TN02/3005Z
TEMPO 2910/2913 24010KT
TEMPO 3013/3015 30010KT
ATIS : +33 4 42 31 15 15



MET'MAP, la Météo Aéronautique d'un coup d'oeil ! - Copyright ORBIFLY Décembre 2007 - Disclaimer

ORBIFLY MET'MAP TEAM :

Programmation & Développement : Alexandra Zaïnal
Sur une idée originale de : Baudouin d'Aumeries
Assistance à la programmation : Marc-Olivier Méhu
Soutien technique & logistique : Manuel Goepfert

Contact : metmap@orbifly.com




SOURCES & CREDITS :

   NOAA